createdAt,value
2023-03-29T06:20:23.791Z,162.52
2023-03-29T06:30:22.818Z,152.63
2023-03-29T06:40:23.004Z,171.08
2023-03-29T06:50:22.648Z,159.61
2023-03-29T07:00:22.714Z,167.58
2023-03-29T07:10:22.990Z,179.59
2023-03-29T07:20:22.841Z,178.14
2023-03-29T07:30:22.836Z,176.06
2023-03-29T07:40:22.777Z,178.77
2023-03-29T07:50:22.721Z,178.78
2023-03-29T08:00:22.988Z,179.55
2023-03-29T08:10:22.809Z,178.65
2023-03-29T08:20:23.024Z,178.91
2023-03-29T08:30:22.890Z,179.70
2023-03-29T08:40:22.755Z,178.84
2023-03-29T08:50:22.916Z,179.95
2023-03-29T09:00:22.679Z,179.92
2023-03-29T09:10:23.067Z,179.13
2023-03-29T09:20:23.031Z,177.61
2023-03-29T09:30:22.649Z,179.47
2023-03-29T09:40:22.811Z,180.20
2023-03-29T09:50:30.977Z,179.06
2023-03-29T10:00:22.773Z,179.37
2023-03-29T10:10:22.859Z,180.34
2023-03-29T10:20:22.644Z,179.44
2023-03-29T10:30:22.750Z,179.00
2023-03-29T10:40:22.933Z,179.56
2023-03-29T10:50:22.793Z,178.75
2023-03-29T11:00:22.792Z,183.84
2023-03-29T11:10:22.916Z,178.60
2023-03-29T11:20:22.775Z,179.25
2023-03-29T11:30:22.814Z,179.70
2023-03-29T11:40:22.732Z,184.26
2023-03-29T11:50:22.764Z,176.45
2023-03-29T12:00:22.903Z,180.40
2023-03-29T12:10:22.799Z,178.71
2023-03-29T12:20:22.855Z,178.97
2023-03-29T12:30:22.929Z,175.46
2023-03-29T12:40:22.874Z,188.65
2023-03-29T12:50:22.748Z,176.82
2023-03-29T13:00:22.659Z,179.20
2023-03-29T13:10:22.997Z,180.47
2023-03-29T13:20:22.855Z,183.09
2023-03-29T13:30:22.735Z,181.74
2023-03-29T13:40:23.024Z,180.44
2023-03-29T13:50:22.844Z,185.21
2023-03-29T14:00:22.873Z,181.05
2023-03-29T14:10:22.986Z,182.73
2023-03-29T14:20:22.781Z,178.85
2023-03-29T14:30:22.907Z,181.08
2023-03-29T14:40:22.971Z,177.71
2023-03-29T14:50:23.140Z,178.50
2023-03-29T15:00:23.098Z,178.93
2023-03-29T15:10:23.214Z,181.30
2023-03-29T15:20:23.416Z,179.54
2023-03-29T15:30:23.655Z,179.81
2023-03-29T15:40:23.619Z,178.72
2023-03-29T15:50:23.555Z,180.00
2023-03-29T16:00:23.399Z,179.28
2023-03-29T16:10:23.431Z,179.16
2023-03-29T16:20:23.419Z,180.00
2023-03-29T16:30:23.592Z,176.68
2023-03-29T16:40:23.447Z,179.25
2023-03-29T16:50:23.734Z,179.28
2023-03-29T17:00:23.409Z,176.85
2023-03-29T17:10:23.644Z,179.28
2023-03-29T17:20:23.822Z,178.42
2023-03-29T17:30:23.574Z,178.80
2023-03-29T17:40:23.484Z,179.71
2023-03-29T17:50:23.625Z,174.55
2023-03-29T18:00:23.688Z,135.83
2023-03-29T18:10:23.762Z,135.00
2023-03-29T18:20:23.599Z,135.00
2023-03-29T18:30:23.766Z,135.00
2023-03-29T18:40:23.654Z,131.71
2023-03-29T18:50:23.903Z,103.35
2023-03-29T19:00:23.901Z,135.00
2023-03-29T19:10:24.140Z,152.57
2023-03-29T19:20:24.444Z,137.08
